Terminal Aerodrome Forecast
Issued by NWS Goodland, KS

Home | Current Version | Previous Version | Text Only | Print | Product List | Glossary On
Versions: 1 2 3 4 5 6 7 8 9 10 11 12 13 14 15 16 17 18 19 20 21 22 23 24
000
FTUS43 KGLD 161732
TAFGLD
TAF
KGLD 161732Z 1618/1718 VRB05KT P6SM SCT250
     FM162100 16008KT P6SM BKN150
     FM170500 16007KT P6SM SCT008 BKN015
     FM171000 16005KT 5SM BR OVC005
     FM171500 15008KT P6SM OVC007=

USA.gov is the U.S. government's official web portal to all federal, state and local government web resources and services.